This is the latest recevied weather packets stored in our database for station/object KF0PEC-15. If no packets are shown the sender has not sent any weather packets the latest 10 day(s).
| Time | Temp. | Humidity | Pressure | Rain* | Wind** | Luminosity | Snow |
|---|---|---|---|---|---|---|---|
| 1777882773 | 6.67° C | 59% | 1015.6 hPa | 0 mm | - | 0 W/m² | - |
| 1777882195 | 6.67° C | 58% | 1015.6 hPa | 0 mm | - | 0 W/m² | - |
| 1777881715 | 6.67° C | 58% | 1015.6 hPa | 0 mm | - | 0 W/m² | - |
| 1777881135 | 7.22° C | 57% | 1015.4 hPa | 0 mm | - | 0 W/m² | - |
| 1777880570 | 7.22° C | 57% | 1015.3 hPa | 0 mm | - | 0 W/m² | - |
| 1777880057 | 7.78° C | 55% | 1015.1 hPa | 0 mm | - | 0 W/m² | - |
| 1777879500 | 7.78° C | 54% | 1015 hPa | 0 mm | - | 0 W/m² | - |
| 1777879005 | 7.78° C | 53% | 1015 hPa | 0 mm | - | 0 W/m² | - |
| 1777878457 | 7.78° C | 53% | 1015.3 hPa | 0 mm | - | 0 W/m² | - |
| 1777877935 | 7.78° C | 53% | 1015.2 hPa | 0 mm | - | 0 W/m² | - |
| 1777877357 | 7.78° C | 52% | 1015.4 hPa | 0 mm | - | 0 W/m² | - |
| 1777876815 | 8.33° C | 52% | 1015.2 hPa | 0 mm | - | 0 W/m² | - |
| 1777876257 | 8.33° C | 52% | 1015.2 hPa | 0 mm | - | 0 W/m² | - |
| 1777875755 | 8.33° C | 51% | 1015 hPa | 0 mm | - | 0 W/m² | - |
| 1777875205 | 8.89° C | 49% | 1014.7 hPa | 0 mm | - | 0 W/m² | - |
| 1777874712 | 9.44° C | 48% | 1014.2 hPa | 0 mm | - | 0 W/m² | - |
| 1777874225 | 9.44° C | 47% | 1014.2 hPa | 0 mm | - | 0 W/m² | - |
| 1777873715 | 10° C | 46% | 1014 hPa | 0 mm | - | 0 W/m² | - |
| 1777873230 | 10° C | 45% | 1013.9 hPa | 0 mm | - | 0 W/m² | - |
| 1777872717 | 10° C | 45% | 1014 hPa | 0 mm | - | 0 W/m² | - |
| 1777872130 | 11.11° C | 42% | 1013.3 hPa | 0 mm | - | 0 W/m² | - |
| 1777871585 | 10.56° C | 41% | 1013.4 hPa | 0 mm | - | 0 W/m² | - |
| 1777871037 | 10.56° C | 42% | 1013.5 hPa | 0 mm | - | 0 W/m² | - |
| 1777870520 | 11.11° C | 43% | 1013.3 hPa | 0 mm | - | 0 W/m² | - |
| 1777869965 | 11.11° C | 41% | 1013.3 hPa | 0 mm | - | 0 W/m² | - |
* Rain latest hour (hover to see other rain measurements)
** Current wind speed in m/s (hover to see current wind gust speed)